sensor_id;sensor_type;location;lat;lon;timestamp;pressure;altitude;pressure_sealevel;temperature;humidity
20955;BME280;10636;19.390;-99.256;2023-08-08T00:00:07;78118.16;;;26.76;37.21
20955;BME280;10636;19.390;-99.256;2023-08-08T00:02:36;78120.84;;;26.76;37.21
20955;BME280;10636;19.390;-99.256;2023-08-08T00:05:05;78125.56;;;26.75;37.51
20955;BME280;10636;19.390;-99.256;2023-08-08T00:07:34;78116.09;;;26.74;37.38
20955;BME280;10636;19.390;-99.256;2023-08-08T00:10:03;78129.63;;;26.76;36.95
20955;BME280;10636;19.390;-99.256;2023-08-08T00:12:31;78125.56;;;26.75;36.88
20955;BME280;10636;19.390;-99.256;2023-08-08T00:15:01;78120.84;;;26.76;37.08
20955;BME280;10636;19.390;-99.256;2023-08-08T00:17:30;78120.19;;;26.75;36.92
20955;BME280;10636;19.390;-99.256;2023-08-08T00:19:59;78124.88;;;26.75;37.64
20955;BME280;10636;19.390;-99.256;2023-08-08T00:22:27;78122.78;;;26.73;37.34
20955;BME280;10636;19.390;-99.256;2023-08-08T00:24:56;78116.09;;;26.74;37.50
20955;BME280;10636;19.390;-99.256;2023-08-08T00:27:25;78124.19;;;26.74;37.45
20955;BME280;10636;19.390;-99.256;2023-08-08T00:29:53;78118.81;;;26.74;37.26
20955;BME280;10636;19.390;-99.256;2023-08-08T00:32:23;78114.78;;;26.75;37.22
20955;BME280;10636;19.390;-99.256;2023-08-08T00:34:52;78124.19;;;26.74;37.17
20955;BME280;10636;19.390;-99.256;2023-08-08T00:37:20;78130.94;;;26.75;36.86
20955;BME280;10636;19.390;-99.256;2023-08-08T00:39:49;78131.56;;;26.74;36.92
20955;BME280;10636;19.390;-99.256;2023-08-08T00:42:17;78124.88;;;26.75;37.32
20955;BME280;10636;19.390;-99.256;2023-08-08T00:44:46;78128.16;;;26.73;37.10
20955;BME280;10636;19.390;-99.256;2023-08-08T00:47:15;78138.22;;;26.73;36.99
20955;BME280;10636;19.390;-99.256;2023-08-08T00:49:45;78142.94;;;26.72;36.92
20955;BME280;10636;19.390;-99.256;2023-08-08T00:52:15;78146.94;;;26.71;37.14
20955;BME280;10636;19.390;-99.256;2023-08-08T00:54:44;78146.31;;;26.73;37.08
20955;BME280;10636;19.390;-99.256;2023-08-08T00:57:13;78163.13;;;26.73;36.75
20955;BME280;10636;19.390;-99.256;2023-08-08T00:59:43;78158.47;;;26.74;36.57
20955;BME280;10636;19.390;-99.256;2023-08-08T01:02:12;78169.22;;;26.74;36.75
20955;BME280;10636;19.390;-99.256;2023-08-08T01:04:41;78184.66;;;26.73;37.04
20955;BME280;10636;19.390;-99.256;2023-08-08T01:07:17;78179.22;;;26.71;36.80
20955;BME280;10636;19.390;-99.256;2023-08-08T01:09:55;78192.03;;;26.73;37.04
20955;BME280;10636;19.390;-99.256;2023-08-08T01:12:28;78204.81;;;26.72;36.64
20955;BME280;10636;19.390;-99.256;2023-08-08T01:14:57;78196.72;;;26.72;36.88
20955;BME280;10636;19.390;-99.256;2023-08-08T01:17:27;78206.13;;;26.71;36.65
20955;BME280;10636;19.390;-99.256;2023-08-08T01:19:56;78210.13;;;26.70;36.31
20955;BME280;10636;19.390;-99.256;2023-08-08T01:22:32;78218.13;;;26.68;36.75
20955;BME280;10636;19.390;-99.256;2023-08-08T01:25:07;78221.41;;;26.67;36.89
20955;BME280;10636;19.390;-99.256;2023-08-08T01:27:37;78227.44;;;26.65;36.63
20955;BME280;10636;19.390;-99.256;2023-08-08T01:30:07;78238.13;;;26.63;36.34
20955;BME280;10636;19.390;-99.256;2023-08-08T01:32:37;78233.28;;;26.59;36.32
20955;BME280;10636;19.390;-99.256;2023-08-08T01:35:07;78236.59;;;26.58;36.29
20955;BME280;10636;19.390;-99.256;2023-08-08T01:37:44;78240.50;;;26.55;36.63
20955;BME280;10636;19.390;-99.256;2023-08-08T01:40:17;78236.97;;;26.50;37.07
20955;BME280;10636;19.390;-99.256;2023-08-08T01:42:48;78245.66;;;26.49;37.84
20955;BME280;10636;19.390;-99.256;2023-08-08T01:45:17;78250.88;;;26.45;38.37
20955;BME280;10636;19.390;-99.256;2023-08-08T01:47:50;78257.38;;;26.40;39.47
20955;BME280;10636;19.390;-99.256;2023-08-08T01:50:20;78270.06;;;26.37;39.35
20955;BME280;10636;19.390;-99.256;2023-08-08T01:52:49;78297.44;;;26.31;39.07
20955;BME280;10636;19.390;-99.256;2023-08-08T01:55:20;78317.41;;;26.26;38.50
20955;BME280;10636;19.390;-99.256;2023-08-08T01:57:49;78319.31;;;26.24;38.67
20955;BME280;10636;19.390;-99.256;2023-08-08T02:00:18;78324.44;;;26.18;39.00
20955;BME280;10636;19.390;-99.256;2023-08-08T02:02:48;78321.13;;;26.19;39.14
20955;BME280;10636;19.390;-99.256;2023-08-08T02:05:17;78331.97;;;26.21;39.20
20955;BME280;10636;19.390;-99.256;2023-08-08T02:07:46;78356.94;;;26.24;39.44
20955;BME280;10636;19.390;-99.256;2023-08-08T02:10:15;78353.03;;;26.27;39.53
20955;BME280;10636;19.390;-99.256;2023-08-08T02:12:46;78348.34;;;26.27;39.79
20955;BME280;10636;19.390;-99.256;2023-08-08T02:15:15;78349.72;;;26.28;39.83
20955;BME280;10636;19.390;-99.256;2023-08-08T02:17:46;78352.41;;;26.28;40.13
20955;BME280;10636;19.390;-99.256;2023-08-08T02:20:15;78356.41;;;26.27;40.06
20955;BME280;10636;19.390;-99.256;2023-08-08T02:22:45;78356.41;;;26.27;40.10
20955;BME280;10636;19.390;-99.256;2023-08-08T02:25:15;78346.25;;;26.26;40.72
20955;BME280;10636;19.390;-99.256;2023-08-08T02:27:46;78352.88;;;26.23;41.15
20955;BME280;10636;19.390;-99.256;2023-08-08T02:30:18;78359.47;;;26.20;41.07
20955;BME280;10636;19.390;-99.256;2023-08-08T02:32:48;78362.16;;;26.20;41.62
20955;BME280;10636;19.390;-99.256;2023-08-08T02:35:18;78359.47;;;26.20;41.24
20955;BME280;10636;19.390;-99.256;2023-08-08T02:37:47;78362.25;;;26.22;41.58
20955;BME280;10636;19.390;-99.256;2023-08-08T02:40:16;78364.94;;;26.22;41.45
20955;BME280;10636;19.390;-99.256;2023-08-08T02:42:48;78367.69;;;26.24;41.92
20955;BME280;10636;19.390;-99.256;2023-08-08T02:45:17;78364.25;;;26.21;41.89
20955;BME280;10636;19.390;-99.256;2023-08-08T02:47:48;78368.22;;;26.20;42.16
20955;BME280;10636;19.390;-99.256;2023-08-08T02:50:18;78369.53;;;26.19;42.17
20955;BME280;10636;19.390;-99.256;2023-08-08T02:52:48;78369.44;;;26.17;42.42
20955;BME280;10636;19.390;-99.256;2023-08-08T02:55:17;78369.34;;;26.15;42.32
20955;BME280;10636;19.390;-99.256;2023-08-08T02:57:48;78369.34;;;26.15;42.18
20955;BME280;10636;19.390;-99.256;2023-08-08T03:00:18;78361.28;;;26.15;41.72
20955;BME280;10636;19.390;-99.256;2023-08-08T03:02:48;78367.91;;;26.12;41.69
20955;BME280;10636;19.390;-99.256;2023-08-08T03:05:17;78364.69;;;26.16;41.77
20955;BME280;10636;19.390;-99.256;2023-08-08T03:07:48;78365.28;;;26.14;41.76
20955;BME280;10636;19.390;-99.256;2023-08-08T03:10:17;78367.91;;;26.12;41.91
20955;BME280;10636;19.390;-99.256;2023-08-08T03:12:48;78363.84;;;26.11;42.48
20955;BME280;10636;19.390;-99.256;2023-08-08T03:15:18;78369.22;;;26.11;42.13
20955;BME280;10636;19.390;-99.256;2023-08-08T03:17:47;78358.34;;;26.09;42.36
20955;BME280;10636;19.390;-99.256;2023-08-08T03:20:16;78352.97;;;26.09;42.06
20955;BME280;10636;19.390;-99.256;2023-08-08T03:22:45;78361.06;;;26.09;41.93
20955;BME280;10636;19.390;-99.256;2023-08-08T03:25:15;78360.34;;;26.08;41.88
20955;BME280;10636;19.390;-99.256;2023-08-08T03:27:44;78357.59;;;26.06;41.70
20955;BME280;10636;19.390;-99.256;2023-08-08T03:30:15;78354.22;;;26.06;41.49
20955;BME280;10636;19.390;-99.256;2023-08-08T03:32:44;78346.84;;;26.06;41.29
20955;BME280;10636;19.390;-99.256;2023-08-08T03:35:13;78348.84;;;26.06;41.12
20955;BME280;10636;19.390;-99.256;2023-08-08T03:37:43;78355.59;;;26.07;41.07
20955;BME280;10636;19.390;-99.256;2023-08-08T03:40:12;78358.22;;;26.05;41.36
20955;BME280;10636;19.390;-99.256;2023-08-08T03:42:42;78358.91;;;26.05;41.29
20955;BME280;10636;19.390;-99.256;2023-08-08T03:45:13;78358.22;;;26.05;41.03
20955;BME280;10636;19.390;-99.256;2023-08-08T03:47:42;78355.53;;;26.05;41.02
20955;BME280;10636;19.390;-99.256;2023-08-08T03:50:12;78364.13;;;26.01;41.05
20955;BME280;10636;19.390;-99.256;2023-08-08T03:52:41;78372.78;;;26.00;41.49
20955;BME280;10636;19.390;-99.256;2023-08-08T03:55:10;78370.09;;;26.00;41.22
20955;BME280;10636;19.390;-99.256;2023-08-08T03:57:39;78374.69;;;25.97;41.16
20955;BME280;10636;19.390;-99.256;2023-08-08T04:00:09;78375.38;;;25.98;41.20
20955;BME280;10636;19.390;-99.256;2023-08-08T04:02:40;78371.38;;;25.99;41.33
20955;BME280;10636;19.390;-99.256;2023-08-08T04:05:09;78375.38;;;25.98;41.30
20955;BME280;10636;19.390;-99.256;2023-08-08T04:07:38;78371.38;;;25.99;41.57
20955;BME280;10636;19.390;-99.256;2023-08-08T04:10:08;78374.00;;;25.97;41.36
20955;BME280;10636;19.390;-99.256;2023-08-08T04:12:37;78383.38;;;25.96;41.36
20955;BME280;10636;19.390;-99.256;2023-08-08T04:15:07;78377.13;;;25.91;41.74
20955;BME280;10636;19.390;-99.256;2023-08-08T04:17:36;78382.13;;;25.99;41.69
20955;BME280;10636;19.390;-99.256;2023-08-08T04:20:08;78390.31;;;26.01;42.02
20955;BME280;10636;19.390;-99.256;2023-08-08T04:22:38;78392.88;;;25.99;42.18
20955;BME280;10636;19.390;-99.256;2023-08-08T04:25:07;78403.63;;;25.99;42.48
20955;BME280;10636;19.390;-99.256;2023-08-08T04:27:36;78402.25;;;25.98;42.68
20955;BME280;10636;19.390;-99.256;2023-08-08T04:30:06;78408.94;;;25.97;42.73
20955;BME280;10636;19.390;-99.256;2023-08-08T04:32:36;78412.94;;;25.96;42.47
20955;BME280;10636;19.390;-99.256;2023-08-08T04:35:07;78413.00;;;25.98;42.74
20955;BME280;10636;19.390;-99.256;2023-08-08T04:37:36;78414.38;;;25.99;42.97
20955;BME280;10636;19.390;-99.256;2023-08-08T04:40:06;78413.00;;;25.98;42.94
20955;BME280;10636;19.390;-99.256;2023-08-08T04:42:36;78407.47;;;25.94;43.09
20955;BME280;10636;19.390;-99.256;2023-08-08T04:45:06;78416.81;;;25.93;43.02
20955;BME280;10636;19.390;-99.256;2023-08-08T04:47:35;78422.13;;;25.91;43.24
20955;BME280;10636;19.390;-99.256;2023-08-08T04:50:07;78424.13;;;25.90;43.67
20955;BME280;10636;19.390;-99.256;2023-08-08T04:52:36;78424.72;;;25.89;43.63
20955;BME280;10636;19.390;-99.256;2023-08-08T04:55:05;78432.78;;;25.89;43.60
20955;BME280;10636;19.390;-99.256;2023-08-08T04:57:34;78428.13;;;25.89;43.58
20955;BME280;10636;19.390;-99.256;2023-08-08T05:00:04;78430.00;;;25.87;43.56
20955;BME280;10636;19.390;-99.256;2023-08-08T05:02:35;78428.63;;;25.86;43.82
20955;BME280;10636;19.390;-99.256;2023-08-08T05:05:08;78425.84;;;25.84;43.83
20955;BME280;10636;19.390;-99.256;2023-08-08T05:07:37;78431.22;;;25.84;43.41
20955;BME280;10636;19.390;-99.256;2023-08-08T05:10:07;78433.81;;;25.81;43.75
20955;BME280;10636;19.390;-99.256;2023-08-08T05:12:36;78421.78;;;25.83;43.56
20955;BME280;10636;19.390;-99.256;2023-08-08T05:15:06;78427.16;;;25.83;43.79
20955;BME280;10636;19.390;-99.256;2023-08-08T05:17:36;78423.78;;;25.82;43.89
20955;BME280;10636;19.390;-99.256;2023-08-08T05:20:08;78424.47;;;25.83;44.18
20955;BME280;10636;19.390;-99.256;2023-08-08T05:22:37;78419.69;;;25.81;43.98
20955;BME280;10636;19.390;-99.256;2023-08-08T05:25:07;78423.09;;;25.81;44.03
20955;BME280;10636;19.390;-99.256;2023-08-08T05:27:36;78421.69;;;25.80;44.00
20955;BME280;10636;19.390;-99.256;2023-08-08T05:30:06;78425.69;;;25.79;43.81
20955;BME280;10636;19.390;-99.256;2023-08-08T05:32:35;78425.69;;;25.79;44.03
20955;BME280;10636;19.390;-99.256;2023-08-08T05:35:05;78425.69;;;25.79;44.03
20955;BME280;10636;19.390;-99.256;2023-08-08T05:37:36;78418.94;;;25.78;44.07
20955;BME280;10636;19.390;-99.256;2023-08-08T05:40:06;78418.84;;;25.76;44.15
20955;BME280;10636;19.390;-99.256;2023-08-08T05:42:37;78416.16;;;25.76;43.99
20955;BME280;10636;19.390;-99.256;2023-08-08T05:45:07;78428.19;;;25.75;44.13
20955;BME280;10636;19.390;-99.256;2023-08-08T05:47:36;78413.38;;;25.74;44.09
20955;BME280;10636;19.390;-99.256;2023-08-08T05:50:06;78415.34;;;25.74;44.17
20955;BME280;10636;19.390;-99.256;2023-08-08T05:52:37;78422.72;;;25.73;44.28
20955;BME280;10636;19.390;-99.256;2023-08-08T05:55:07;78417.34;;;25.73;44.37
20955;BME280;10636;19.390;-99.256;2023-08-08T05:57:36;78408.50;;;25.71;44.19
20955;BME280;10636;19.390;-99.256;2023-08-08T06:00:06;78402.50;;;25.72;44.23
20955;BME280;10636;19.390;-99.256;2023-08-08T06:02:37;78397.13;;;25.72;44.22
20955;BME280;10636;19.390;-99.256;2023-08-08T06:05:08;78395.75;;;25.71;44.04
20955;BME280;10636;19.390;-99.256;2023-08-08T06:07:39;78389.00;;;25.70;44.17
20955;BME280;10636;19.390;-99.256;2023-08-08T06:10:08;78390.38;;;25.71;44.25
20955;BME280;10636;19.390;-99.256;2023-08-08T06:12:37;78397.06;;;25.70;44.07
20955;BME280;10636;19.390;-99.256;2023-08-08T06:15:07;78394.38;;;25.70;44.18
20955;BME280;10636;19.390;-99.256;2023-08-08T06:17:35;78398.28;;;25.67;44.05
20955;BME280;10636;19.390;-99.256;2023-08-08T06:20:05;78402.25;;;25.66;44.24
20955;BME280;10636;19.390;-99.256;2023-08-08T06:22:37;78399.56;;;25.66;44.16
20955;BME280;10636;19.390;-99.256;2023-08-08T06:25:06;78396.81;;;25.64;44.05
20955;BME280;10636;19.390;-99.256;2023-08-08T06:27:34;78400.88;;;25.65;44.19
20955;BME280;10636;19.390;-99.256;2023-08-08T06:30:04;78403.56;;;25.65;44.63
20955;BME280;10636;19.390;-99.256;2023-08-08T06:32:33;78402.88;;;25.65;44.35
20955;BME280;10636;19.390;-99.256;2023-08-08T06:35:01;78399.50;;;25.64;44.16
20955;BME280;10636;19.390;-99.256;2023-08-08T06:37:30;78395.50;;;25.65;44.17
20955;BME280;10636;19.390;-99.256;2023-08-08T06:40:01;78392.75;;;25.63;44.33
20955;BME280;10636;19.390;-99.256;2023-08-08T06:42:30;78387.38;;;25.63;44.37
20955;BME280;10636;19.390;-99.256;2023-08-08T06:44:59;78388.75;;;25.64;44.31
20955;BME280;10636;19.390;-99.256;2023-08-08T06:47:27;78395.44;;;25.63;44.50
20955;BME280;10636;19.390;-99.256;2023-08-08T06:49:56;78383.38;;;25.64;44.47
20955;BME280;10636;19.390;-99.256;2023-08-08T06:52:24;78374.03;;;25.65;44.47
20955;BME280;10636;19.390;-99.256;2023-08-08T06:54:53;78373.31;;;25.65;44.52
20955;BME280;10636;19.390;-99.256;2023-08-08T06:57:23;78374.03;;;25.65;44.52
20955;BME280;10636;19.390;-99.256;2023-08-08T06:59:52;78361.19;;;25.64;44.26
20955;BME280;10636;19.390;-99.256;2023-08-08T07:02:20;78368.56;;;25.63;44.64
20955;BME280;10636;19.390;-99.256;2023-08-08T07:04:49;78359.09;;;25.62;44.59
20955;BME280;10636;19.390;-99.256;2023-08-08T07:07:18;78357.72;;;25.61;44.85
20955;BME280;10636;19.390;-99.256;2023-08-08T07:09:46;78351.66;;;25.61;44.65
20955;BME280;10636;19.390;-99.256;2023-08-08T07:12:17;78350.97;;;25.60;44.60
20955;BME280;10636;19.390;-99.256;2023-08-08T07:14:47;78357.66;;;25.59;44.56
20955;BME280;10636;19.390;-99.256;2023-08-08T07:17:15;78344.66;;;25.53;44.95
20955;BME280;10636;19.390;-99.256;2023-08-08T07:19:44;78346.13;;;25.56;44.50
20955;BME280;10636;19.390;-99.256;2023-08-08T07:22:12;78347.44;;;25.55;44.67
20955;BME280;10636;19.390;-99.256;2023-08-08T07:24:41;78354.78;;;25.55;44.81
20955;BME280;10636;19.390;-99.256;2023-08-08T07:27:10;78353.41;;;25.54;44.85
20955;BME280;10636;19.390;-99.256;2023-08-08T07:29:38;78352.78;;;25.55;44.89
20955;BME280;10636;19.390;-99.256;2023-08-08T07:32:09;78354.78;;;25.55;44.73
20955;BME280;10636;19.390;-99.256;2023-08-08T07:34:37;78350.09;;;25.55;44.87
20955;BME280;10636;19.390;-99.256;2023-08-08T07:37:06;78344.06;;;25.55;44.78
20955;BME280;10636;19.390;-99.256;2023-08-08T07:39:34;78353.41;;;25.54;44.62
20955;BME280;10636;19.390;-99.256;2023-08-08T07:42:03;78349.34;;;25.53;45.04
20955;BME280;10636;19.390;-99.256;2023-08-08T07:44:32;78345.19;;;25.50;44.74
20955;BME280;10636;19.390;-99.256;2023-08-08T07:47:01;78343.88;;;25.51;44.73
20955;BME280;10636;19.390;-99.256;2023-08-08T07:49:31;78336.44;;;25.49;44.90
20955;BME280;10636;19.390;-99.256;2023-08-08T07:51:59;78335.06;;;25.48;44.91
20955;BME280;10636;19.390;-99.256;2023-08-08T07:54:28;78332.97;;;25.47;44.77
20955;BME280;10636;19.390;-99.256;2023-08-08T07:56:56;78331.69;;;25.48;44.61
20955;BME280;10636;19.390;-99.256;2023-08-08T07:59:25;78324.94;;;25.47;44.76
20955;BME280;10636;19.390;-99.256;2023-08-08T08:01:54;78326.22;;;25.46;45.00
20955;BME280;10636;19.390;-99.256;2023-08-08T08:04:22;78332.97;;;25.47;44.80
20955;BME280;10636;19.390;-99.256;2023-08-08T08:06:52;78336.25;;;25.45;44.77
20955;BME280;10636;19.390;-99.256;2023-08-08T08:09:21;78328.13;;;25.43;44.78
20955;BME280;10636;19.390;-99.256;2023-08-08T08:11:50;78331.44;;;25.42;44.75
20955;BME280;10636;19.390;-99.256;2023-08-08T08:14:18;78334.09;;;25.42;44.69
20955;BME280;10636;19.390;-99.256;2023-08-08T08:16:47;78342.16;;;25.42;45.11
20955;BME280;10636;19.390;-99.256;2023-08-08T08:19:16;78343.44;;;25.41;44.65
20955;BME280;10636;19.390;-99.256;2023-08-08T08:21:44;78339.38;;;25.40;45.13
20955;BME280;10636;19.390;-99.256;2023-08-08T08:24:14;78327.25;;;25.39;44.99
20955;BME280;10636;19.390;-99.256;2023-08-08T08:26:43;78320.59;;;25.40;44.85
20955;BME280;10636;19.390;-99.256;2023-08-08T08:29:11;78327.25;;;25.39;44.75
20955;BME280;10636;19.390;-99.256;2023-08-08T08:31:40;78322.59;;;25.39;44.95
20955;BME280;10636;19.390;-99.256;2023-08-08T08:34:08;78320.50;;;25.38;44.81
20955;BME280;10636;19.390;-99.256;2023-08-08T08:36:37;78317.72;;;25.36;44.91
20955;BME280;10636;19.390;-99.256;2023-08-08T08:39:05;78319.66;;;25.33;45.03
20955;BME280;10636;19.390;-99.256;2023-08-08T08:41:36;78317.66;;;25.34;45.20
20955;BME280;10636;19.390;-99.256;2023-08-08T08:44:05;78316.97;;;25.33;44.83
20955;BME280;10636;19.390;-99.256;2023-08-08T08:46:36;78316.16;;;25.30;45.10
20955;BME280;10636;19.390;-99.256;2023-08-08T08:49:06;78320.16;;;25.29;45.26
20955;BME280;10636;19.390;-99.256;2023-08-08T08:51:36;78308.03;;;25.28;44.88
20955;BME280;10636;19.390;-99.256;2023-08-08T08:54:04;78310.72;;;25.28;45.00
20955;BME280;10636;19.390;-99.256;2023-08-08T08:56:35;78305.34;;;25.28;45.04
20955;BME280;10636;19.390;-99.256;2023-08-08T08:59:04;78307.34;;;25.28;45.12
20955;BME280;10636;19.390;-99.256;2023-08-08T09:01:33;78304.59;;;25.26;44.98
20955;BME280;10636;19.390;-99.256;2023-08-08T09:04:03;78307.88;;;25.24;45.18
20955;BME280;10636;19.390;-99.256;2023-08-08T09:06:34;78302.50;;;25.24;45.11
20955;BME280;10636;19.390;-99.256;2023-08-08T09:09:05;78305.78;;;25.23;44.93
20955;BME280;10636;19.390;-99.256;2023-08-08T09:11:35;78305.09;;;25.22;45.09
20955;BME280;10636;19.390;-99.256;2023-08-08T09:14:04;78299.72;;;25.22;44.90
20955;BME280;10636;19.390;-99.256;2023-08-08T09:16:32;78303.72;;;25.21;45.32
20955;BME280;10636;19.390;-99.256;2023-08-08T09:19:01;78305.09;;;25.22;45.31
20955;BME280;10636;19.390;-99.256;2023-08-08T09:21:30;78296.94;;;25.20;44.68
20955;BME280;10636;19.390;-99.256;2023-08-08T09:23:58;78299.63;;;25.20;44.86
20955;BME280;10636;19.390;-99.256;2023-08-08T09:26:28;78292.81;;;25.17;45.14
20955;BME280;10636;19.390;-99.256;2023-08-08T09:28:58;78300.94;;;25.19;45.19
20955;BME280;10636;19.390;-99.256;2023-08-08T09:31:27;78294.88;;;25.19;45.38
20955;BME280;10636;19.390;-99.256;2023-08-08T09:33:57;78301.63;;;25.20;45.13
20955;BME280;10636;19.390;-99.256;2023-08-08T09:36:26;78294.19;;;25.18;45.32
20955;BME280;10636;19.390;-99.256;2023-08-08T09:38:55;78303.53;;;25.17;45.42
20955;BME280;10636;19.390;-99.256;2023-08-08T09:41:24;78304.84;;;25.16;45.23
20955;BME280;10636;19.390;-99.256;2023-08-08T09:43:53;78302.16;;;25.16;45.08
20955;BME280;10636;19.390;-99.256;2023-08-08T09:46:24;78302.16;;;25.16;45.11
20955;BME280;10636;19.390;-99.256;2023-08-08T09:48:52;78310.81;;;25.15;45.19
20955;BME280;10636;19.390;-99.256;2023-08-08T09:51:22;78316.91;;;25.15;45.17
20955;BME280;10636;19.390;-99.256;2023-08-08T09:53:51;78320.84;;;25.14;45.31
20955;BME280;10636;19.390;-99.256;2023-08-08T09:56:20;78323.47;;;25.12;45.18
20955;BME280;10636;19.390;-99.256;2023-08-08T09:58:51;78331.50;;;25.12;45.03
20955;BME280;10636;19.390;-99.256;2023-08-08T10:01:20;78328.03;;;25.10;45.09
20955;BME280;10636;19.390;-99.256;2023-08-08T10:03:51;78334.00;;;25.08;45.18
20955;BME280;10636;19.390;-99.256;2023-08-08T10:06:20;78324.59;;;25.07;45.08
20955;BME280;10636;19.390;-99.256;2023-08-08T10:08:50;78329.13;;;25.04;45.38
20955;BME280;10636;19.390;-99.256;2023-08-08T10:11:19;78333.81;;;25.04;45.38
20955;BME280;10636;19.390;-99.256;2023-08-08T10:13:50;78325.75;;;25.04;45.44
20955;BME280;10636;19.390;-99.256;2023-08-08T10:16:22;78329.13;;;25.04;45.40
20955;BME280;10636;19.390;-99.256;2023-08-08T10:18:58;78329.75;;;25.03;45.36
20955;BME280;10636;19.390;-99.256;2023-08-08T10:21:28;78325.59;;;25.00;45.13
20955;BME280;10636;19.390;-99.256;2023-08-08T10:24:04;78329.66;;;25.01;45.35
20955;BME280;10636;19.390;-99.256;2023-08-08T10:26:34;78311.50;;;24.99;45.21
20955;BME280;10636;19.390;-99.256;2023-08-08T10:29:02;78328.28;;;25.00;45.20
20955;BME280;10636;19.390;-99.256;2023-08-08T10:31:34;78321.50;;;24.99;45.47
20955;BME280;10636;19.390;-99.256;2023-08-08T10:34:05;78325.50;;;24.98;45.42
20955;BME280;10636;19.390;-99.256;2023-08-08T10:36:59;78320.13;;;24.98;45.32
20955;BME280;10636;19.390;-99.256;2023-08-08T10:39:30;78330.88;;;24.98;45.42
20955;BME280;10636;19.390;-99.256;2023-08-08T10:42:02;78335.53;;;24.97;45.17
20955;BME280;10636;19.390;-99.256;2023-08-08T10:44:32;78342.22;;;24.96;45.06
20955;BME280;10636;19.390;-99.256;2023-08-08T10:47:11;78341.53;;;24.96;45.48
20955;BME280;10636;19.390;-99.256;2023-08-08T10:49:42;78346.78;;;24.94;45.13
20955;BME280;10636;19.390;-99.256;2023-08-08T10:52:14;78340.03;;;24.93;45.31
20955;BME280;10636;19.390;-99.256;2023-08-08T10:54:52;78345.41;;;24.93;44.92
20955;BME280;10636;19.390;-99.256;2023-08-08T10:57:25;78346.63;;;24.90;44.92
20955;BME280;10636;19.390;-99.256;2023-08-08T10:59:54;78346.63;;;24.90;44.97
20955;BME280;10636;19.390;-99.256;2023-08-08T11:02:23;78347.31;;;24.90;45.08
20955;BME280;10636;19.390;-99.256;2023-08-08T11:04:55;78345.94;;;24.89;45.40
20955;BME280;10636;19.390;-99.256;2023-08-08T11:07:27;78357.34;;;24.90;45.19
20955;BME280;10636;19.390;-99.256;2023-08-08T11:09:56;78351.19;;;24.87;44.84
20955;BME280;10636;19.390;-99.256;2023-08-08T11:12:25;78350.44;;;24.85;45.44
20955;BME280;10636;19.390;-99.256;2023-08-08T11:14:55;78359.78;;;24.84;44.99
20955;BME280;10636;19.390;-99.256;2023-08-08T11:17:24;78367.09;;;24.83;45.06
20955;BME280;10636;19.390;-99.256;2023-08-08T11:19:54;78359.06;;;24.83;45.18
20955;BME280;10636;19.390;-99.256;2023-08-08T11:22:23;78369.78;;;24.83;44.71
20955;BME280;10636;19.390;-99.256;2023-08-08T11:24:52;78366.34;;;24.81;45.13
20955;BME280;10636;19.390;-99.256;2023-08-08T11:27:24;78370.31;;;24.80;44.51
20955;BME280;10636;19.390;-99.256;2023-08-08T11:29:53;78368.22;;;24.78;44.72
20955;BME280;10636;19.390;-99.256;2023-08-08T11:32:22;78374.88;;;24.77;44.39
20955;BME280;10636;19.390;-99.256;2023-08-08T11:34:51;78370.13;;;24.75;44.65
20955;BME280;10636;19.390;-99.256;2023-08-08T11:37:22;78372.81;;;24.75;44.27
20955;BME280;10636;19.390;-99.256;2023-08-08T11:39:51;78369.44;;;24.75;44.74
20955;BME280;10636;19.390;-99.256;2023-08-08T11:42:19;78372.13;;;24.75;44.90
20955;BME280;10636;19.390;-99.256;2023-08-08T11:44:48;78366.75;;;24.75;44.77
20955;BME280;10636;19.390;-99.256;2023-08-08T11:47:17;78364.69;;;24.73;44.38
20955;BME280;10636;19.390;-99.256;2023-08-08T11:49:46;78360.00;;;24.74;44.52
20955;BME280;10636;19.390;-99.256;2023-08-08T11:52:14;78367.38;;;24.73;44.52
20955;BME280;10636;19.390;-99.256;2023-08-08T11:54:44;78367.97;;;24.72;44.38
20955;BME280;10636;19.390;-99.256;2023-08-08T11:57:18;78373.94;;;24.70;44.43
20955;BME280;10636;19.390;-99.256;2023-08-08T11:59:48;78383.97;;;24.70;44.46
20955;BME280;10636;19.390;-99.256;2023-08-08T12:02:17;78377.91;;;24.69;44.03
20955;BME280;10636;19.390;-99.256;2023-08-08T12:04:46;78374.44;;;24.67;44.02
20955;BME280;10636;19.390;-99.256;2023-08-08T12:07:16;78373.75;;;24.66;44.36
20955;BME280;10636;19.390;-99.256;2023-08-08T12:09:47;78374.44;;;24.67;43.88
20955;BME280;10636;19.390;-99.256;2023-08-08T12:12:15;78378.91;;;24.62;43.96
20955;BME280;10636;19.390;-99.256;2023-08-08T12:14:45;78388.38;;;24.63;44.20
20955;BME280;10636;19.390;-99.256;2023-08-08T12:17:15;78392.44;;;24.64;43.96
20955;BME280;10636;19.390;-99.256;2023-08-08T12:19:45;78397.09;;;24.64;44.31
20955;BME280;10636;19.390;-99.256;2023-08-08T12:22:15;78396.41;;;24.63;43.79
20955;BME280;10636;19.390;-99.256;2023-08-08T12:24:43;78398.41;;;24.63;44.02
20955;BME280;10636;19.390;-99.256;2023-08-08T12:27:14;78407.16;;;24.63;44.16
20955;BME280;10636;19.390;-99.256;2023-08-08T12:29:42;78400.97;;;24.61;44.19
20955;BME280;10636;19.390;-99.256;2023-08-08T12:32:11;78396.22;;;24.59;44.07
20955;BME280;10636;19.390;-99.256;2023-08-08T12:34:39;78393.53;;;24.59;43.99
20955;BME280;10636;19.390;-99.256;2023-08-08T12:37:08;78401.59;;;24.59;44.32
20955;BME280;10636;19.390;-99.256;2023-08-08T12:39:37;78404.88;;;24.58;43.84
20955;BME280;10636;19.390;-99.256;2023-08-08T12:42:05;78402.78;;;24.56;43.70
20955;BME280;10636;19.390;-99.256;2023-08-08T12:44:36;78409.53;;;24.57;44.32
20955;BME280;10636;19.390;-99.256;2023-08-08T12:47:05;78408.16;;;24.56;43.89
20955;BME280;10636;19.390;-99.256;2023-08-08T12:49:33;78418.19;;;24.56;43.87
20955;BME280;10636;19.390;-99.256;2023-08-08T12:52:02;78415.00;;;24.59;43.65